VOE3930 LEAS-LPPR
Flight info
| Callsign | VOE3930 |
|---|---|
| Flight time | 0h 36m |
| Altitude | 23000 |
| Route | KUVAN1M KUVAN N872 RALUS DCT BELDU DCT INKIT INKIT6C |
| Aircraft | A320/M-SDE2E3FGHIRWXY/LB1 |
Departure
| Time | 2026-04-18 10:40 |
|---|---|
| Airport | Asturias Airport (LEAS) |
Arrival
| Time | 2026-04-18 11:17 |
|---|---|
| Airport | Francisco de Sá Carneiro Airport (LPPR) |
| Time | Latitude | Longitude | Altitude | Speed | Heading |
|---|---|---|---|---|---|
| 2026-04-18 10:25 | 43.56014 | -6.03270 | 426 ft | 0 kts | 243° |
| 2026-04-18 10:32 | 43.56015 | -6.03270 | 426 ft | 0 kts | 243° |
| 2026-04-18 10:34 | 43.56014 | -6.03270 | 426 ft | 1 kts | 243° |
| 2026-04-18 10:35 | 43.56018 | -6.03279 | 416 ft | 3 kts | 301° |
| 2026-04-18 10:35 | 43.56036 | -6.03272 | 417 ft | 5 kts | 40° |
| 2026-04-18 10:35 | 43.56048 | -6.03195 | 421 ft | 13 kts | 103° |
| 2026-04-18 10:35 | 43.56019 | -6.03063 | 421 ft | 15 kts | 106° |
| 2026-04-18 10:36 | 43.56001 | -6.02925 | 426 ft | 13 kts | 55° |
| 2026-04-18 10:36 | 43.56043 | -6.02857 | 416 ft | 10 kts | 89° |
| 2026-04-18 10:36 | 43.56020 | -6.02742 | 414 ft | 15 kts | 107° |
| 2026-04-18 10:36 | 43.55984 | -6.02587 | 420 ft | 18 kts | 108° |
| 2026-04-18 10:37 | 43.55946 | -6.02417 | 421 ft | 15 kts | 101° |
| 2026-04-18 10:37 | 43.55965 | -6.02313 | 420 ft | 0 kts | 68° |
| 2026-04-18 10:39 | 43.55975 | -6.02276 | 425 ft | 13 kts | 68° |
| 2026-04-18 10:39 | 43.56060 | -6.02235 | 412 ft | 16 kts | 312° |
| 2026-04-18 10:39 | 43.56106 | -6.02398 | 423 ft | 30 kts | 288° |
| 2026-04-18 10:40 | 43.56269 | -6.03087 | 423 ft | 118 kts | 288° |
| 2026-04-18 10:40 | 43.56594 | -6.04454 | 550 ft | 172 kts | 290° |
| 2026-04-18 10:40 | 43.56985 | -6.06072 | 1187 ft | 188 kts | 290° |
| 2026-04-18 10:40 | 43.57419 | -6.07838 | 1999 ft | 198 kts | 290° |
| 2026-04-18 10:41 | 43.57856 | -6.09613 | 2762 ft | 193 kts | 289° |
| 2026-04-18 10:41 | 43.58301 | -6.11408 | 3234 ft | 205 kts | 289° |
| 2026-04-18 10:41 | 43.58764 | -6.13369 | 3586 ft | 223 kts | 287° |
| 2026-04-18 10:41 | 43.59205 | -6.15456 | 4175 ft | 229 kts | 278° |
| 2026-04-18 10:42 | 43.58963 | -6.17560 | 4930 ft | 224 kts | 237° |
| 2026-04-18 10:42 | 43.57808 | -6.18940 | 5653 ft | 223 kts | 204° |
| 2026-04-18 10:42 | 43.56357 | -6.19763 | 6261 ft | 233 kts | 202° |
| 2026-04-18 10:42 | 43.54778 | -6.20669 | 6630 ft | 257 kts | 203° |
| 2026-04-18 10:43 | 43.53118 | -6.21634 | 7261 ft | 266 kts | 204° |
| 2026-04-18 10:43 | 43.51402 | -6.22636 | 8067 ft | 269 kts | 204° |
| 2026-04-18 10:43 | 43.49670 | -6.23648 | 8901 ft | 272 kts | 204° |
| 2026-04-18 10:43 | 43.47919 | -6.24666 | 9761 ft | 274 kts | 204° |
| 2026-04-18 10:44 | 43.46148 | -6.25691 | 10529 ft | 279 kts | 204° |
| 2026-04-18 10:44 | 43.44284 | -6.26773 | 10791 ft | 303 kts | 204° |
| 2026-04-18 10:44 | 43.42271 | -6.27945 | 11010 ft | 325 kts | 204° |
| 2026-04-18 10:44 | 43.40154 | -6.29178 | 11534 ft | 335 kts | 204° |
| 2026-04-18 10:45 | 43.37992 | -6.30432 | 12220 ft | 339 kts | 204° |
| 2026-04-18 10:45 | 43.35801 | -6.31694 | 12927 ft | 343 kts | 204° |
| 2026-04-18 10:45 | 43.33588 | -6.32959 | 13628 ft | 347 kts | 204° |
| 2026-04-18 10:45 | 43.31348 | -6.34240 | 14285 ft | 350 kts | 205° |
| 2026-04-18 10:46 | 43.29090 | -6.35534 | 14895 ft | 353 kts | 205° |
| 2026-04-18 10:46 | 43.26816 | -6.36843 | 15547 ft | 355 kts | 205° |
| 2026-04-18 10:46 | 43.24533 | -6.38161 | 16184 ft | 357 kts | 205° |
| 2026-04-18 10:46 | 43.22261 | -6.39468 | 16800 ft | 360 kts | 205° |
| 2026-04-18 10:47 | 43.19913 | -6.40816 | 17457 ft | 362 kts | 205° |
| 2026-04-18 10:47 | 43.17614 | -6.42135 | 18090 ft | 364 kts | 205° |
| 2026-04-18 10:47 | 43.15266 | -6.43478 | 18688 ft | 367 kts | 205° |
| 2026-04-18 10:47 | 43.12901 | -6.44830 | 19248 ft | 370 kts | 205° |
| 2026-04-18 10:48 | 43.10491 | -6.46208 | 19768 ft | 372 kts | 205° |
| 2026-04-18 10:48 | 43.08093 | -6.47581 | 20291 ft | 374 kts | 205° |
| 2026-04-18 10:48 | 43.05682 | -6.48959 | 20769 ft | 377 kts | 205° |
| 2026-04-18 10:48 | 43.03280 | -6.50330 | 21260 ft | 380 kts | 205° |
| 2026-04-18 10:49 | 43.00829 | -6.51726 | 21787 ft | 383 kts | 205° |
| 2026-04-18 10:49 | 42.98358 | -6.53132 | 22297 ft | 386 kts | 205° |
| 2026-04-18 10:49 | 42.95869 | -6.54544 | 22761 ft | 390 kts | 206° |
| 2026-04-18 10:49 | 42.93328 | -6.55990 | 22884 ft | 401 kts | 206° |
| 2026-04-18 10:50 | 42.90725 | -6.57474 | 23031 ft | 410 kts | 205° |
| 2026-04-18 10:50 | 42.88064 | -6.58989 | 23152 ft | 418 kts | 206° |
| 2026-04-18 10:50 | 42.85350 | -6.60530 | 23159 ft | 428 kts | 205° |
| 2026-04-18 10:50 | 42.82572 | -6.62103 | 23158 ft | 436 kts | 205° |
| 2026-04-18 10:51 | 42.79742 | -6.63702 | 23154 ft | 444 kts | 205° |
| 2026-04-18 10:51 | 42.76865 | -6.65326 | 23154 ft | 451 kts | 205° |
| 2026-04-18 10:51 | 42.73955 | -6.66966 | 23150 ft | 456 kts | 205° |
| 2026-04-18 10:51 | 42.71007 | -6.68625 | 23156 ft | 459 kts | 205° |
| 2026-04-18 10:52 | 42.68051 | -6.70290 | 23145 ft | 461 kts | 205° |
| 2026-04-18 10:52 | 42.65089 | -6.71955 | 23146 ft | 461 kts | 205° |
| 2026-04-18 10:52 | 42.62156 | -6.73608 | 23146 ft | 461 kts | 205° |
| 2026-04-18 10:52 | 42.59191 | -6.75277 | 23146 ft | 461 kts | 205° |
| 2026-04-18 10:53 | 42.56220 | -6.76949 | 23147 ft | 461 kts | 205° |
| 2026-04-18 10:53 | 42.53257 | -6.78615 | 23147 ft | 461 kts | 205° |
| 2026-04-18 10:53 | 42.50289 | -6.80281 | 23146 ft | 461 kts | 205° |
| 2026-04-18 10:53 | 42.47323 | -6.81939 | 23143 ft | 461 kts | 205° |
| 2026-04-18 10:54 | 42.44351 | -6.83597 | 23141 ft | 461 kts | 205° |
| 2026-04-18 10:54 | 42.41384 | -6.85251 | 23133 ft | 461 kts | 205° |
| 2026-04-18 10:54 | 42.38415 | -6.86907 | 23132 ft | 462 kts | 205° |
| 2026-04-18 10:54 | 42.35444 | -6.88562 | 23137 ft | 461 kts | 205° |
| 2026-04-18 10:55 | 42.32481 | -6.90209 | 23137 ft | 461 kts | 204° |
| 2026-04-18 10:55 | 42.29509 | -6.91861 | 23133 ft | 461 kts | 205° |
| 2026-04-18 10:55 | 42.26539 | -6.93512 | 23136 ft | 461 kts | 204° |
| 2026-04-18 10:55 | 42.23574 | -6.95157 | 23134 ft | 461 kts | 204° |
| 2026-04-18 10:56 | 42.20603 | -6.96799 | 23125 ft | 462 kts | 204° |
| 2026-04-18 10:56 | 42.17630 | -6.98432 | 23118 ft | 461 kts | 204° |
| 2026-04-18 10:56 | 42.14659 | -7.00075 | 23125 ft | 461 kts | 204° |
| 2026-04-18 10:56 | 42.11694 | -7.01715 | 23130 ft | 461 kts | 204° |
| 2026-04-18 10:57 | 42.08722 | -7.03357 | 23133 ft | 461 kts | 204° |
| 2026-04-18 10:57 | 42.05752 | -7.04999 | 23132 ft | 461 kts | 204° |
| 2026-04-18 10:57 | 42.02821 | -7.06621 | 23131 ft | 461 kts | 204° |
| 2026-04-18 10:57 | 41.99816 | -7.08283 | 23131 ft | 461 kts | 204° |
| 2026-04-18 10:58 | 41.96886 | -7.09894 | 23130 ft | 461 kts | 204° |
| 2026-04-18 10:58 | 41.93983 | -7.11720 | 23127 ft | 459 kts | 212° |
| 2026-04-18 10:58 | 41.91412 | -7.14225 | 23127 ft | 457 kts | 222° |
| 2026-04-18 10:58 | 41.89008 | -7.17013 | 23129 ft | 457 kts | 222° |
| 2026-04-18 10:59 | 41.86601 | -7.19808 | 23130 ft | 457 kts | 222° |
| 2026-04-18 10:59 | 41.84190 | -7.22605 | 23123 ft | 457 kts | 222° |
| 2026-04-18 10:59 | 41.81781 | -7.25393 | 23122 ft | 458 kts | 221° |
| 2026-04-18 10:59 | 41.79368 | -7.28175 | 23127 ft | 458 kts | 221° |
| 2026-04-18 11:00 | 41.76951 | -7.30951 | 23123 ft | 458 kts | 221° |
| 2026-04-18 11:00 | 41.74531 | -7.33724 | 23119 ft | 458 kts | 221° |
| 2026-04-18 11:00 | 41.72111 | -7.36496 | 23122 ft | 458 kts | 221° |
| 2026-04-18 11:00 | 41.69691 | -7.39268 | 23124 ft | 458 kts | 221° |
| 2026-04-18 11:01 | 41.67268 | -7.42041 | 23124 ft | 458 kts | 221° |
| 2026-04-18 11:01 | 41.64850 | -7.44809 | 23130 ft | 458 kts | 221° |
| 2026-04-18 11:01 | 41.62429 | -7.47575 | 23132 ft | 458 kts | 221° |
| 2026-04-18 11:02 | 41.57770 | -7.53346 | 23128 ft | 457 kts | 232° |
| 2026-04-18 11:02 | 41.55880 | -7.56759 | 22846 ft | 454 kts | 233° |
| 2026-04-18 11:02 | 41.54037 | -7.60138 | 21741 ft | 448 kts | 234° |
| 2026-04-18 11:02 | 41.52238 | -7.63462 | 20695 ft | 446 kts | 234° |
| 2026-04-18 11:03 | 41.50443 | -7.66790 | 20006 ft | 434 kts | 234° |
| 2026-04-18 11:03 | 41.48718 | -7.69982 | 19869 ft | 414 kts | 234° |
| 2026-04-18 11:03 | 41.47051 | -7.73063 | 19680 ft | 410 kts | 234° |
| 2026-04-18 11:03 | 41.45375 | -7.76145 | 19419 ft | 411 kts | 234° |
| 2026-04-18 11:04 | 41.43699 | -7.79220 | 18918 ft | 408 kts | 234° |
| 2026-04-18 11:04 | 41.42034 | -7.82270 | 18405 ft | 406 kts | 234° |
| 2026-04-18 11:04 | 41.40376 | -7.85300 | 17823 ft | 403 kts | 234° |
| 2026-04-18 11:04 | 41.38724 | -7.88318 | 17281 ft | 401 kts | 234° |
| 2026-04-18 11:05 | 41.37086 | -7.91314 | 16744 ft | 400 kts | 234° |
| 2026-04-18 11:05 | 41.35456 | -7.94291 | 16205 ft | 397 kts | 234° |
| 2026-04-18 11:05 | 41.33832 | -7.97250 | 15668 ft | 394 kts | 234° |
| 2026-04-18 11:05 | 41.32217 | -8.00192 | 15123 ft | 392 kts | 234° |
| 2026-04-18 11:06 | 41.30614 | -8.03114 | 14582 ft | 390 kts | 234° |
| 2026-04-18 11:06 | 41.29048 | -8.05968 | 14289 ft | 380 kts | 234° |
| 2026-04-18 11:06 | 41.27494 | -8.08789 | 14071 ft | 368 kts | 234° |
| 2026-04-18 11:06 | 41.26012 | -8.11483 | 13604 ft | 364 kts | 234° |
| 2026-04-18 11:07 | 41.24524 | -8.14186 | 13038 ft | 361 kts | 234° |
| 2026-04-18 11:07 | 41.23061 | -8.16843 | 12103 ft | 353 kts | 233° |
| 2026-04-18 11:07 | 41.21623 | -8.19448 | 11393 ft | 342 kts | 233° |
| 2026-04-18 11:07 | 41.20253 | -8.21925 | 10909 ft | 325 kts | 233° |
| 2026-04-18 11:08 | 41.18952 | -8.24276 | 10655 ft | 308 kts | 233° |
| 2026-04-18 11:08 | 41.17704 | -8.26529 | 10528 ft | 297 kts | 233° |
| 2026-04-18 11:08 | 41.16496 | -8.28713 | 10404 ft | 288 kts | 233° |
| 2026-04-18 11:08 | 41.15320 | -8.30826 | 10276 ft | 281 kts | 233° |
| 2026-04-18 11:09 | 41.14161 | -8.32908 | 10194 ft | 280 kts | 233° |
| 2026-04-18 11:09 | 41.13006 | -8.34987 | 10051 ft | 280 kts | 233° |
| 2026-04-18 11:09 | 41.11843 | -8.37083 | 9608 ft | 282 kts | 233° |
| 2026-04-18 11:09 | 41.10678 | -8.39182 | 9233 ft | 281 kts | 233° |
| 2026-04-18 11:10 | 41.09536 | -8.41238 | 8809 ft | 281 kts | 233° |
| 2026-04-18 11:10 | 41.08377 | -8.43323 | 8398 ft | 280 kts | 232° |
| 2026-04-18 11:10 | 41.07224 | -8.45395 | 8012 ft | 280 kts | 233° |
| 2026-04-18 11:10 | 41.06063 | -8.47479 | 7611 ft | 281 kts | 232° |
| 2026-04-18 11:11 | 41.04905 | -8.49555 | 7216 ft | 279 kts | 232° |
| 2026-04-18 11:11 | 41.03749 | -8.51620 | 6827 ft | 279 kts | 232° |
| 2026-04-18 11:11 | 41.02593 | -8.53687 | 6433 ft | 280 kts | 232° |
| 2026-04-18 11:11 | 41.01452 | -8.55735 | 6018 ft | 270 kts | 234° |
| 2026-04-18 11:12 | 41.00702 | -8.57926 | 5654 ft | 259 kts | 261° |
| 2026-04-18 11:12 | 41.00945 | -8.60229 | 5294 ft | 254 kts | 294° |
| 2026-04-18 11:12 | 41.02094 | -8.61944 | 4843 ft | 253 kts | 328° |
| 2026-04-18 11:12 | 41.03760 | -8.62659 | 4388 ft | 252 kts | 347° |
| 2026-04-18 11:13 | 41.04904 | -8.62963 | 4032 ft | 255 kts | 348° |
| 2026-04-18 11:13 | 41.06629 | -8.63411 | 3593 ft | 251 kts | 348° |
| 2026-04-18 11:13 | 41.08321 | -8.63842 | 3232 ft | 244 kts | 348° |
| 2026-04-18 11:13 | 41.09963 | -8.64259 | 2877 ft | 239 kts | 349° |
| 2026-04-18 11:14 | 41.11573 | -8.64670 | 2580 ft | 232 kts | 349° |
| 2026-04-18 11:14 | 41.13130 | -8.65073 | 2273 ft | 222 kts | 349° |
| 2026-04-18 11:14 | 41.14582 | -8.65451 | 1986 ft | 205 kts | 349° |
| 2026-04-18 11:14 | 41.15920 | -8.65799 | 1750 ft | 186 kts | 349° |
| 2026-04-18 11:15 | 41.17139 | -8.66116 | 1481 ft | 171 kts | 349° |
| 2026-04-18 11:15 | 41.18247 | -8.66405 | 1296 ft | 153 kts | 349° |
| 2026-04-18 11:15 | 41.19251 | -8.66669 | 1093 ft | 142 kts | 349° |
| 2026-04-18 11:15 | 41.20208 | -8.66919 | 915 ft | 139 kts | 348° |
| 2026-04-18 11:16 | 41.21152 | -8.67164 | 735 ft | 137 kts | 348° |
| 2026-04-18 11:16 | 41.22099 | -8.67412 | 560 ft | 138 kts | 346° |
| 2026-04-18 11:16 | 41.23041 | -8.67657 | 348 ft | 137 kts | 347° |
| 2026-04-18 11:16 | 41.23962 | -8.67903 | 234 ft | 123 kts | 348° |
| 2026-04-18 11:17 | 41.24634 | -8.68079 | 238 ft | 74 kts | 349° |
| 2026-04-18 11:17 | 41.24973 | -8.68164 | 235 ft | 30 kts | 353° |
| 2026-04-18 11:17 | 41.25185 | -8.68142 | 236 ft | 29 kts | 13° |
| 2026-04-18 11:17 | 41.25250 | -8.68111 | 236 ft | 0 kts | 19° |
| 2026-04-18 11:18 | 41.25259 | -8.68107 | 235 ft | 0 kts | 19° |
| 2026-04-18 11:19 | 41.25260 | -8.68107 | 234 ft | 1 kts | 19° |
| 2026-04-18 11:20 | 41.25287 | -8.68049 | 235 ft | 10 kts | 101° |
| 2026-04-18 11:20 | 41.25227 | -8.68003 | 235 ft | 16 kts | 167° |
| 2026-04-18 11:20 | 41.25040 | -8.67954 | 235 ft | 33 kts | 169° |
| 2026-04-18 11:20 | 41.24821 | -8.67864 | 237 ft | 33 kts | 156° |
| 2026-04-18 11:21 | 41.24613 | -8.67786 | 235 ft | 31 kts | 169° |
| 2026-04-18 11:21 | 41.24398 | -8.67731 | 236 ft | 32 kts | 169° |
| 2026-04-18 11:21 | 41.24241 | -8.67602 | 235 ft | 18 kts | 136° |
| 2026-04-18 11:21 | 41.24140 | -8.67558 | 235 ft | 19 kts | 163° |
| 2026-04-18 11:22 | 41.23979 | -8.67515 | 235 ft | 27 kts | 168° |
| 2026-04-18 11:22 | 41.23783 | -8.67464 | 235 ft | 29 kts | 167° |
| 2026-04-18 11:22 | 41.23689 | -8.67354 | 235 ft | 7 kts | 151° |
| 2026-04-18 11:22 | 41.23679 | -8.67305 | 235 ft | 6 kts | 77° |
| 2026-04-18 11:23 | 41.23686 | -8.67256 | 235 ft | 2 kts | 78° |